createdAt,value
2019-06-07T00:00:40.734Z,101580.04
2019-06-07T00:01:40.067Z,101579.39
2019-06-07T00:02:41.753Z,101579.14
2019-06-07T00:03:41.335Z,101578.58
2019-06-07T00:04:43.167Z,101579.03
2019-06-07T00:04:51.713Z,101582.92
2019-06-07T00:05:53.130Z,101582.49
2019-06-07T00:06:53.657Z,101582.75
2019-06-07T00:07:54.296Z,101582.83
2019-06-07T00:08:55.129Z,101582.58
2019-06-07T00:09:54.690Z,101582.58
2019-06-07T00:10:56.441Z,101582.58
2019-06-07T00:11:57.022Z,101581.91
2019-06-07T00:12:57.997Z,101580.72
2019-06-07T00:13:57.802Z,101580.34
2019-06-07T00:14:59.576Z,101579.17
2019-06-07T00:16:00.316Z,101578.91
2019-06-07T00:17:00.911Z,101577.90
2019-06-07T00:18:01.567Z,101577.31
2019-06-07T00:19:02.200Z,101577.31
2019-06-07T00:20:02.909Z,101575.87
2019-06-07T00:21:03.425Z,101575.45
2019-06-07T00:22:17.682Z,101575.06
2019-06-07T00:23:03.627Z,101574.55
2019-06-07T00:24:05.184Z,101573.53
2019-06-07T00:25:05.920Z,101572.86
2019-06-07T00:26:06.349Z,101572.52
2019-06-07T00:27:08.300Z,101572.44
2019-06-07T00:28:06.659Z,101571.97
2019-06-07T00:29:09.253Z,101571.91
2019-06-07T00:30:32.678Z,101571.94
2019-06-07T00:31:08.991Z,101572.09
2019-06-07T00:32:09.383Z,101572.58
2019-06-07T00:33:10.893Z,101572.72
2019-06-07T00:34:10.795Z,101573.27
2019-06-07T00:35:11.941Z,101573.13
2019-06-07T00:36:14.612Z,101573.49
2019-06-07T00:37:12.678Z,101574.11
2019-06-07T00:38:14.213Z,101574.31
2019-06-07T00:39:14.492Z,101574.85
2019-06-07T00:40:18.491Z,101575.39
2019-06-07T00:41:15.115Z,101576.18
2019-06-07T00:42:18.600Z,101576.38
2019-06-07T00:43:19.162Z,101576.55
2019-06-07T00:44:19.601Z,101577.22
2019-06-07T00:45:21.086Z,101577.91
2019-06-07T00:46:18.834Z,101579.08
2019-06-07T00:47:21.560Z,101579.53
2019-06-07T00:48:28.761Z,101580.08
2019-06-07T00:49:36.198Z,101580.70
2019-06-07T00:50:23.460Z,101581.48
2019-06-07T00:51:21.898Z,101582.11
2019-06-07T00:53:11.477Z,101582.81
2019-06-07T00:53:31.090Z,101583.58
2019-06-07T00:54:24.065Z,101584.06
2019-06-07T00:55:27.032Z,101584.42
2019-06-07T00:56:23.529Z,101584.80
2019-06-07T00:57:24.447Z,101585.92
2019-06-07T00:58:27.478Z,101586.17
2019-06-07T00:59:29.316Z,101587.13
2019-06-07T01:00:25.704Z,101587.75
2019-06-07T01:01:25.822Z,101588.69
2019-06-07T01:02:31.226Z,101589.73
2019-06-07T01:03:26.850Z,101590.63
2019-06-07T01:04:27.933Z,101592.02
2019-06-07T01:05:31.395Z,101592.47
2019-06-07T01:06:28.206Z,101593.45
2019-06-07T01:07:29.665Z,101594.66
2019-06-07T01:08:30.350Z,101595.23
2019-06-07T01:09:29.638Z,101595.34
2019-06-07T01:10:52.458Z,101595.80
2019-06-07T01:11:31.085Z,101596.33
2019-06-07T01:12:32.976Z,101596.76
2019-06-07T01:13:33.452Z,101597.17
2019-06-07T01:14:34.093Z,101597.34
2019-06-07T01:15:34.763Z,101597.52
2019-06-07T01:16:55.300Z,101597.52
2019-06-07T01:17:59.051Z,101598.10
2019-06-07T01:18:41.031Z,101598.05
2019-06-07T01:19:36.560Z,101598.30
2019-06-07T01:20:37.950Z,101597.88
2019-06-07T01:21:38.799Z,101597.30
2019-06-07T01:21:48.338Z,101598.31
2019-06-07T01:22:49.776Z,101597.64
2019-06-07T01:24:11.866Z,101596.96
2019-06-07T01:24:49.864Z,101597.19
2019-06-07T01:25:51.373Z,101597.10
2019-06-07T01:26:50.917Z,101596.23
2019-06-07T01:27:51.328Z,101595.07
2019-06-07T01:28:53.139Z,101594.45
2019-06-07T01:29:53.620Z,101594.00
2019-06-07T01:30:54.143Z,101593.06
2019-06-07T01:31:54.839Z,101592.36
2019-06-07T01:32:55.344Z,101592.38
2019-06-07T01:33:54.818Z,101591.90
2019-06-07T01:34:56.531Z,101590.73
2019-06-07T01:35:56.998Z,101590.34
2019-06-07T01:36:57.510Z,101589.86
2019-06-07T01:37:58.158Z,101588.78
2019-06-07T01:38:58.657Z,101588.12
2019-06-07T01:39:59.335Z,101587.30
2019-06-07T01:40:59.801Z,101586.48
2019-06-07T01:42:00.347Z,101585.41
2019-06-07T01:43:00.863Z,101584.41
2019-06-07T01:44:01.335Z,101583.20
2019-06-07T01:45:01.788Z,101582.13
2019-06-07T01:46:01.873Z,101581.30
2019-06-07T01:47:02.548Z,101580.59
2019-06-07T01:48:03.462Z,101579.94
2019-06-07T01:49:04.069Z,101578.72
2019-06-07T01:50:04.617Z,101577.84
2019-06-07T01:51:05.437Z,101576.97
2019-06-07T01:52:04.830Z,101576.17
2019-06-07T01:53:06.741Z,101575.80
2019-06-07T01:54:49.437Z,101575.44
2019-06-07T01:55:06.720Z,101575.06
2019-06-07T01:56:08.301Z,101574.70
2019-06-07T01:57:30.429Z,101573.91
2019-06-07T01:58:08.430Z,101573.11
2019-06-07T01:59:10.170Z,101572.66
2019-06-07T02:00:11.087Z,101572.34
2019-06-07T02:01:11.640Z,101571.63
2019-06-07T02:02:12.245Z,101570.59
2019-06-07T02:03:12.966Z,101569.37
2019-06-07T02:04:13.829Z,101568.13
2019-06-07T02:05:14.613Z,101566.65
2019-06-07T02:06:14.696Z,101564.76
2019-06-07T02:07:15.334Z,101563.20
2019-06-07T02:08:14.802Z,101561.82
2019-06-07T02:09:16.457Z,101560.69
2019-06-07T02:10:19.443Z,101558.83
2019-06-07T02:11:18.083Z,101557.70
2019-06-07T02:12:28.118Z,101556.14
2019-06-07T02:13:18.772Z,101554.79
2019-06-07T02:14:19.606Z,101553.16
2019-06-07T02:15:21.711Z,101552.22
2019-06-07T02:16:19.856Z,101550.70
2019-06-07T02:17:24.004Z,101549.06
2019-06-07T02:18:22.964Z,101547.34
2019-06-07T02:19:22.017Z,101546.13
2019-06-07T02:20:25.774Z,101544.28
2019-06-07T02:21:25.732Z,101542.39
2019-06-07T02:21:34.379Z,101520.63
2019-06-07T02:22:32.839Z,101519.86
2019-06-07T02:23:34.464Z,101519.86
2019-06-07T02:24:36.213Z,101520.12
2019-06-07T02:25:42.236Z,101520.06
2019-06-07T02:26:35.107Z,101520.58
2019-06-07T02:27:36.641Z,101520.36
2019-06-07T02:28:45.309Z,101520.14
2019-06-07T02:29:37.066Z,101519.92
2019-06-07T02:30:47.268Z,101519.56
2019-06-07T02:31:39.814Z,101518.95
2019-06-07T02:32:38.173Z,101519.36
2019-06-07T02:33:40.543Z,101519.04
2019-06-07T02:34:39.969Z,101518.46
2019-06-07T02:35:41.241Z,101517.72
2019-06-07T02:36:41.737Z,101517.11
2019-06-07T02:37:41.329Z,101516.88
2019-06-07T02:38:42.562Z,101516.35
2019-06-07T02:39:42.519Z,101515.44
2019-06-07T02:40:42.065Z,101514.57
2019-06-07T02:41:43.598Z,101513.48
2019-06-07T02:42:43.879Z,101513.08
2019-06-07T02:43:44.408Z,101511.91
2019-06-07T02:44:44.895Z,101511.13
2019-06-07T02:45:45.715Z,101510.22
2019-06-07T02:46:49.456Z,101509.39
2019-06-07T02:47:45.442Z,101508.47
2019-06-07T02:48:47.014Z,101507.75
2019-06-07T02:49:47.459Z,101506.81
2019-06-07T02:50:47.842Z,101506.31
2019-06-07T02:51:48.397Z,101505.14
2019-06-07T02:52:49.205Z,101504.20
2019-06-07T02:53:48.513Z,101503.08
2019-06-07T02:54:49.093Z,101502.55
2019-06-07T02:56:34.168Z,101501.77
2019-06-07T02:56:57.803Z,101501.02
2019-06-07T02:57:51.035Z,101500.07
2019-06-07T02:58:52.605Z,101499.55
2019-06-07T03:00:06.493Z,101499.05
2019-06-07T03:01:06.736Z,101497.63
2019-06-07T03:01:53.265Z,101496.76
2019-06-07T03:02:54.752Z,101496.27
2019-06-07T03:03:55.576Z,101495.81
2019-06-07T03:04:57.084Z,101495.15
2019-06-07T03:05:56.661Z,101494.56
2019-06-07T03:06:57.378Z,101493.95
2019-06-07T03:07:57.852Z,101493.34
2019-06-07T03:08:58.321Z,101492.34
2019-06-07T03:09:58.800Z,101492.23
2019-06-07T03:10:58.363Z,101492.04
2019-06-07T03:11:59.794Z,101491.64
2019-06-07T03:13:00.514Z,101491.80
2019-06-07T03:14:01.111Z,101491.69
2019-06-07T03:15:01.718Z,101491.86
2019-06-07T03:16:02.287Z,101491.62
2019-06-07T03:17:03.113Z,101491.96
2019-06-07T03:18:03.658Z,101492.27
2019-06-07T03:19:04.152Z,101492.95
2019-06-07T03:19:12.700Z,101498.74
2019-06-07T03:20:14.092Z,101498.15
2019-06-07T03:21:13.490Z,101498.06
2019-06-07T03:22:15.135Z,101497.73
2019-06-07T03:23:15.582Z,101497.36
2019-06-07T03:24:16.131Z,101497.42
2019-06-07T03:25:15.689Z,101497.16
2019-06-07T03:26:17.241Z,101497.67
2019-06-07T03:27:41.342Z,101497.55
2019-06-07T03:28:17.294Z,101498.06
2019-06-07T03:29:19.036Z,101498.12
2019-06-07T03:30:46.221Z,101498.45
2019-06-07T03:31:19.250Z,101498.42
2019-06-07T03:32:20.818Z,101497.75
2019-06-07T03:33:21.475Z,101497.13
2019-06-07T03:34:21.993Z,101496.60
2019-06-07T03:35:22.655Z,101496.23
2019-06-07T03:36:25.799Z,101495.78
2019-06-07T03:37:22.215Z,101495.75
2019-06-07T03:38:23.947Z,101495.52
2019-06-07T03:39:25.290Z,101495.41
2019-06-07T03:40:23.869Z,101495.13
2019-06-07T03:41:25.360Z,101494.98
2019-06-07T03:42:26.650Z,101494.53
2019-06-07T03:43:25.116Z,101493.75
2019-06-07T03:44:28.629Z,101492.92
2019-06-07T03:45:28.517Z,101491.80
2019-06-07T03:46:27.298Z,101491.18
2019-06-07T03:47:29.188Z,101489.60
2019-06-07T03:48:28.866Z,101488.87
2019-06-07T03:49:30.739Z,101487.58
2019-06-07T03:50:31.950Z,101486.33
2019-06-07T03:51:30.647Z,101485.55
2019-06-07T03:52:30.209Z,101484.05
2019-06-07T03:53:31.143Z,101483.23
2019-06-07T03:54:32.077Z,101481.94
2019-06-07T03:55:37.743Z,101481.16
2019-06-07T03:56:33.764Z,101480.17
2019-06-07T03:58:27.506Z,101479.53
2019-06-07T03:58:45.678Z,101479.09
2019-06-07T03:59:37.425Z,101478.66
2019-06-07T04:00:36.750Z,101478.15
2019-06-07T04:01:37.675Z,101478.06
2019-06-07T04:02:38.602Z,101477.63
2019-06-07T04:03:43.576Z,101476.19
2019-06-07T04:04:38.505Z,101475.64
2019-06-07T04:05:41.222Z,101474.98
2019-06-07T04:06:41.535Z,101474.24
2019-06-07T04:07:43.719Z,101473.98
2019-06-07T04:08:41.950Z,101472.56
2019-06-07T04:09:42.657Z,101470.98
2019-06-07T04:10:53.390Z,101469.39
2019-06-07T04:11:40.959Z,101467.56
2019-06-07T04:12:44.016Z,101466.21
2019-06-07T04:13:43.122Z,101464.20
2019-06-07T04:14:42.920Z,101463.16
2019-06-07T04:15:42.699Z,101461.91
2019-06-07T04:16:44.801Z,101460.44
2019-06-07T04:18:00.950Z,101459.01
2019-06-07T04:18:44.520Z,101457.92
2019-06-07T04:19:46.190Z,101456.83
2019-06-07T04:20:46.838Z,101456.38
2019-06-07T04:21:47.343Z,101455.53
2019-06-07T04:22:47.861Z,101454.27
2019-06-07T04:23:48.740Z,101453.25
2019-06-07T04:24:49.485Z,101452.38
2019-06-07T04:25:50.047Z,101451.02
2019-06-07T04:26:50.689Z,101449.22
2019-06-07T04:27:51.592Z,101448.03
2019-06-07T04:29:31.507Z,101446.85
2019-06-07T04:30:06.666Z,101445.67
2019-06-07T04:30:52.613Z,101443.98
2019-06-07T04:31:54.362Z,101443.02
2019-06-07T04:32:54.879Z,101441.25
2019-06-07T04:33:55.363Z,101439.30
2019-06-07T04:34:55.973Z,101437.75
2019-06-07T04:35:55.389Z,101436.06
2019-06-07T04:36:59.619Z,101434.38
2019-06-07T04:37:56.653Z,101433.36
2019-06-07T04:38:58.230Z,101431.58
2019-06-07T04:39:06.767Z,101406.04
2019-06-07T04:40:08.182Z,101406.13
2019-06-07T04:41:08.650Z,101406.26
2019-06-07T04:42:09.286Z,101406.73
2019-06-07T04:43:09.866Z,101407.12
2019-06-07T04:44:10.354Z,101407.39
2019-06-07T04:45:32.587Z,101406.53
2019-06-07T04:46:10.803Z,101405.70
2019-06-07T04:47:12.481Z,101405.64
2019-06-07T04:48:13.041Z,101405.33
2019-06-07T04:49:13.758Z,101404.86
2019-06-07T04:50:14.373Z,101403.92
2019-06-07T04:51:15.414Z,101403.11
2019-06-07T04:52:14.911Z,101402.40
2019-06-07T04:53:16.669Z,101402.09
2019-06-07T04:54:17.252Z,101401.45
2019-06-07T04:55:17.745Z,101400.73
2019-06-07T04:56:18.268Z,101400.27
2019-06-07T04:57:19.050Z,101399.30
2019-06-07T04:58:19.522Z,101398.63
2019-06-07T05:00:01.141Z,101397.31
2019-06-07T05:00:48.483Z,101395.98
2019-06-07T05:01:27.471Z,101394.53
2019-06-07T05:02:20.990Z,101392.84
2019-06-07T05:03:22.545Z,101390.89
2019-06-07T05:04:23.057Z,101389.67
2019-06-07T05:05:23.856Z,101388.47
2019-06-07T05:06:24.025Z,101387.56
2019-06-07T05:07:24.479Z,101386.42
2019-06-07T05:08:28.485Z,101385.69
2019-06-07T05:09:25.004Z,101384.64
2019-06-07T05:10:26.738Z,101383.80
2019-06-07T05:11:27.256Z,101383.30
2019-06-07T05:12:27.729Z,101382.41
2019-06-07T05:13:28.004Z,101381.52
2019-06-07T05:14:31.167Z,101381.12
2019-06-07T05:15:29.587Z,101379.89
2019-06-07T05:16:30.493Z,101378.52
2019-06-07T05:17:31.279Z,101377.53
2019-06-07T05:18:30.269Z,101376.97
2019-06-07T05:19:35.186Z,101375.70
2019-06-07T05:20:33.630Z,101374.70
2019-06-07T05:21:58.342Z,101373.55
2019-06-07T05:22:34.934Z,101372.26
2019-06-07T05:24:35.591Z,101369.70
2019-06-07T05:25:35.695Z,101368.16
2019-06-07T05:26:38.523Z,101367.03
2019-06-07T05:27:37.914Z,101365.75
2019-06-07T05:28:37.852Z,101364.17
2019-06-07T05:29:38.365Z,101363.09
2019-06-07T05:31:02.005Z,101362.05
2019-06-07T05:31:39.753Z,101361.28
2019-06-07T05:32:43.759Z,101360.41
2019-06-07T05:33:40.593Z,101359.70
2019-06-07T05:34:42.430Z,101358.66
2019-06-07T05:35:43.179Z,101357.06
2019-06-07T05:36:44.328Z,101355.59
2019-06-07T05:37:45.485Z,101354.09
2019-06-07T05:38:44.719Z,101353.13
2019-06-07T05:39:45.538Z,101351.98
2019-06-07T05:40:47.919Z,101350.66
2019-06-07T05:41:44.447Z,101349.55
2019-06-07T05:42:46.607Z,101347.86
2019-06-07T05:43:51.492Z,101346.66
2019-06-07T05:44:45.817Z,101345.70
2019-06-07T05:45:47.059Z,101344.86
2019-06-07T05:46:47.055Z,101344.03
2019-06-07T05:47:50.680Z,101343.44
2019-06-07T05:48:46.578Z,101342.25
2019-06-07T05:49:48.095Z,101341.45
2019-06-07T05:50:56.587Z,101340.55
2019-06-07T05:51:48.208Z,101340.01
2019-06-07T05:52:49.807Z,101339.61
2019-06-07T05:52:58.377Z,101319.09
2019-06-07T05:54:00.169Z,101319.44
2019-06-07T05:55:00.649Z,101318.59
2019-06-07T05:56:01.117Z,101318.42
2019-06-07T05:57:01.619Z,101317.72
2019-06-07T05:58:02.074Z,101317.01
2019-06-07T05:59:02.557Z,101316.95
2019-06-07T06:00:03.425Z,101316.17
2019-06-07T06:01:41.589Z,101316.05
2019-06-07T06:02:21.453Z,101315.96
2019-06-07T06:03:05.978Z,101315.64
2019-06-07T06:04:04.605Z,101314.61
2019-06-07T06:05:06.082Z,101313.57
2019-06-07T06:06:06.510Z,101312.70
2019-06-07T06:07:07.218Z,101311.95
2019-06-07T06:08:07.808Z,101310.98
2019-06-07T06:09:13.689Z,101310.70
2019-06-07T06:10:07.926Z,101309.68
2019-06-07T06:11:09.749Z,101309.44
2019-06-07T06:12:10.317Z,101308.75
2019-06-07T06:13:11.103Z,101308.06
2019-06-07T06:14:11.526Z,101307.61
2019-06-07T06:15:12.158Z,101307.25
2019-06-07T06:16:12.628Z,101306.65
2019-06-07T06:17:13.133Z,101306.25
2019-06-07T06:18:13.572Z,101305.45
2019-06-07T06:19:14.354Z,101304.87
2019-06-07T06:20:15.136Z,101304.10
2019-06-07T06:21:19.116Z,101303.32
2019-06-07T06:22:15.168Z,101302.32
2019-06-07T06:23:17.115Z,101301.56
2019-06-07T06:24:17.598Z,101300.12
2019-06-07T06:25:34.447Z,101298.80
2019-06-07T06:26:18.266Z,101297.34
2019-06-07T06:28:02.511Z,101296.03
2019-06-07T06:28:19.255Z,101294.35
2019-06-07T06:29:20.745Z,101293.05
2019-06-07T06:30:21.315Z,101291.63
2019-06-07T06:31:22.030Z,101290.56
2019-06-07T06:33:33.645Z,101289.82
2019-06-07T06:34:23.260Z,101288.52
2019-06-07T06:35:25.124Z,101287.23
2019-06-07T06:36:25.727Z,101285.53
2019-06-07T06:37:26.507Z,101284.47
2019-06-07T06:38:27.276Z,101282.98
2019-06-07T06:39:27.903Z,101281.95
2019-06-07T06:40:28.619Z,101280.20
2019-06-07T06:41:29.114Z,101278.73
2019-06-07T06:42:29.606Z,101277.31
2019-06-07T06:43:29.887Z,101276.23
2019-06-07T06:44:30.414Z,101274.41
2019-06-07T06:44:41.812Z,101260.64
2019-06-07T06:45:40.136Z,101260.14
2019-06-07T06:46:44.822Z,101259.53
2019-06-07T06:47:40.807Z,101259.27
2019-06-07T06:48:45.489Z,101259.24
2019-06-07T06:49:43.375Z,101258.94
2019-06-07T06:50:44.413Z,101259.00
2019-06-07T06:51:47.016Z,101258.06
2019-06-07T06:52:45.466Z,101257.67
2019-06-07T06:53:44.376Z,101258.17
2019-06-07T06:54:48.780Z,101258.21
2019-06-07T06:55:48.423Z,101258.62
2019-06-07T06:56:46.998Z,101259.02
2019-06-07T06:57:46.478Z,101259.50
2019-06-07T06:59:26.940Z,101259.47
2019-06-07T06:59:50.452Z,101259.89
2019-06-07T07:00:58.914Z,101259.59
2019-06-07T07:01:50.566Z,101260.49
2019-06-07T07:03:39.574Z,101260.77
2019-06-07T07:04:09.705Z,101260.48
2019-06-07T07:04:53.537Z,101260.64
2019-06-07T07:05:54.237Z,101259.94
2019-06-07T07:06:53.381Z,101259.90
2019-06-07T07:07:52.995Z,101260.06
2019-06-07T07:08:53.428Z,101260.33
2019-06-07T07:09:58.945Z,101260.41
2019-06-07T07:10:54.989Z,101260.21
2019-06-07T07:12:10.248Z,101260.33
2019-06-07T07:12:54.528Z,101260.46
2019-06-07T07:13:57.060Z,101259.97
2019-06-07T07:14:56.212Z,101259.45
2019-06-07T07:15:58.367Z,101259.16
2019-06-07T07:16:56.844Z,101258.88
2019-06-07T07:18:07.793Z,101257.73
2019-06-07T07:18:57.444Z,101256.84
2019-06-07T07:19:59.207Z,101255.76
2019-06-07T07:20:59.765Z,101254.88
2019-06-07T07:22:00.292Z,101253.98
2019-06-07T07:23:00.666Z,101252.22
2019-06-07T07:24:20.435Z,101251.19
2019-06-07T07:25:00.391Z,101249.72
2019-06-07T07:26:01.808Z,101248.30
2019-06-07T07:27:02.253Z,101247.61
2019-06-07T07:28:02.650Z,101246.28
2019-06-07T07:29:03.001Z,101244.50
2019-06-07T07:30:35.637Z,101242.55
2019-06-07T07:31:03.098Z,101240.76
2019-06-07T07:32:04.768Z,101238.00
2019-06-07T07:33:06.613Z,101236.84
2019-06-07T07:34:33.992Z,101234.92
2019-06-07T07:35:05.957Z,101233.11
2019-06-07T07:36:28.195Z,101231.77
2019-06-07T07:37:07.420Z,101229.94
2019-06-07T07:38:09.018Z,101229.25
2019-06-07T07:39:08.498Z,101227.75
2019-06-07T07:40:55.578Z,101226.09
2019-06-07T07:41:15.436Z,101225.00
2019-06-07T07:42:20.895Z,101224.66
2019-06-07T07:43:10.616Z,101222.88
2019-06-07T07:44:12.152Z,101221.58
2019-06-07T07:45:12.574Z,101220.65
2019-06-07T07:46:29.204Z,101218.73
2019-06-07T07:47:13.033Z,101217.52
2019-06-07T07:48:18.077Z,101216.34
2019-06-07T07:49:14.064Z,101215.67
2019-06-07T07:50:15.673Z,101214.24
2019-06-07T07:51:16.191Z,101212.84
2019-06-07T07:52:17.061Z,101211.84
2019-06-07T07:53:17.877Z,101210.47
2019-06-07T07:54:18.314Z,101208.88
2019-06-07T07:55:18.803Z,101207.63
2019-06-07T07:56:18.330Z,101207.03
2019-06-07T07:57:19.766Z,101205.77
2019-06-07T07:58:20.218Z,101205.45
2019-06-07T07:59:20.783Z,101204.77
2019-06-07T08:01:20.928Z,101204.14
2019-06-07T08:02:22.458Z,101203.57
2019-06-07T08:03:22.142Z,101203.02
2019-06-07T08:03:30.711Z,101186.59
2019-06-07T08:05:13.045Z,101181.98
2019-06-07T08:05:42.349Z,101182.09
2019-06-07T08:06:32.711Z,101182.15
2019-06-07T08:07:34.288Z,101182.00
2019-06-07T08:08:33.751Z,101181.60
2019-06-07T08:09:35.272Z,101180.57
2019-06-07T08:10:35.850Z,101179.80
2019-06-07T08:11:36.353Z,101178.78
2019-06-07T08:12:55.458Z,101177.36
2019-06-07T08:13:37.421Z,101175.82
2019-06-07T08:14:37.332Z,101174.66
2019-06-07T08:15:38.839Z,101173.15
2019-06-07T08:16:39.627Z,101172.01
2019-06-07T08:17:40.236Z,101170.52
2019-06-07T08:18:40.762Z,101168.83
2019-06-07T08:19:41.336Z,101166.97
2019-06-07T08:21:01.512Z,101165.22
2019-06-07T08:21:41.636Z,101163.95
2019-06-07T08:22:43.219Z,101162.63
2019-06-07T08:23:43.623Z,101161.67
2019-06-07T08:24:44.251Z,101160.23
2019-06-07T08:25:44.798Z,101158.42
2019-06-07T08:27:06.856Z,101157.38
2019-06-07T08:27:45.046Z,101155.37
2019-06-07T08:28:48.423Z,101153.40
2019-06-07T08:30:03.738Z,101151.71
2019-06-07T08:30:50.676Z,101149.92
2019-06-07T08:31:48.242Z,101148.36
2019-06-07T08:32:52.638Z,101146.80
2019-06-07T08:33:49.887Z,101145.03
2019-06-07T08:34:52.433Z,101143.42
2019-06-07T08:36:19.460Z,101142.08
2019-06-07T08:36:51.657Z,101140.33
2019-06-07T08:38:52.899Z,101137.91
2019-06-07T08:39:52.814Z,101136.53
2019-06-07T08:40:56.868Z,101135.28
2019-06-07T08:42:02.106Z,101133.62
2019-06-07T08:43:11.345Z,101131.90
2019-06-07T08:43:56.484Z,101130.81
2019-06-07T08:45:01.264Z,101129.23
2019-06-07T08:46:01.156Z,101128.67
2019-06-07T08:47:15.975Z,101128.05
2019-06-07T08:47:58.102Z,101127.15
2019-06-07T08:49:02.203Z,101125.95
2019-06-07T08:50:04.375Z,101124.52
2019-06-07T08:51:06.526Z,101122.73
2019-06-07T08:52:09.967Z,101121.44
2019-06-07T08:53:05.104Z,101120.27
2019-06-07T08:54:18.710Z,101118.90
2019-06-07T08:55:04.752Z,101117.39
2019-06-07T08:56:06.984Z,101115.78
2019-06-07T08:57:20.094Z,101113.28
2019-06-07T08:58:08.203Z,101111.23
2019-06-07T08:59:10.805Z,101109.45
2019-06-07T09:00:15.960Z,101106.95
2019-06-07T09:01:07.847Z,101104.39
2019-06-07T09:02:14.687Z,101102.07
2019-06-07T09:03:07.155Z,101099.73
2019-06-07T09:04:09.956Z,101097.86
2019-06-07T09:05:11.684Z,101096.15
2019-06-07T09:06:08.935Z,101095.34
2019-06-07T09:07:18.834Z,101094.31
2019-06-07T09:08:28.723Z,101092.67
2019-06-07T09:09:07.531Z,101092.17
2019-06-07T09:10:14.411Z,101089.36
2019-06-07T09:11:11.177Z,101087.38
2019-06-07T09:12:11.320Z,101085.64
2019-06-07T09:13:11.659Z,101084.33
2019-06-07T09:14:10.176Z,101083.30
2019-06-07T09:15:21.285Z,101081.61
2019-06-07T09:16:11.763Z,101080.03
2019-06-07T09:17:13.068Z,101078.94
2019-06-07T09:19:13.772Z,101075.83
2019-06-07T09:20:35.075Z,101073.87
2019-06-07T09:21:14.664Z,101072.20
2019-06-07T09:22:16.303Z,101070.70
2019-06-07T09:23:17.269Z,101069.11
2019-06-07T09:24:15.530Z,101067.83
2019-06-07T09:25:21.141Z,101066.80
2019-06-07T09:26:18.874Z,101065.67
2019-06-07T09:27:17.190Z,101064.72
2019-06-07T09:28:20.468Z,101063.98
2019-06-07T09:29:18.762Z,101062.27
2019-06-07T09:30:20.230Z,101060.98
2019-06-07T09:31:20.721Z,101059.27
2019-06-07T09:32:21.304Z,101058.06
2019-06-07T09:32:29.867Z,101051.16
2019-06-07T09:33:31.748Z,101046.48
2019-06-07T09:34:32.362Z,101046.55
2019-06-07T09:35:33.293Z,101046.15
2019-06-07T09:36:33.969Z,101046.12
2019-06-07T09:38:16.122Z,101044.51
2019-06-07T09:38:33.913Z,101043.81
2019-06-07T09:39:35.351Z,101043.28
2019-06-07T09:40:35.732Z,101042.77
2019-06-07T09:41:47.512Z,101042.61
2019-06-07T09:42:35.743Z,101041.77
2019-06-07T09:44:36.621Z,101039.66
2019-06-07T09:45:38.153Z,101037.69
2019-06-07T09:46:38.817Z,101037.16
2019-06-07T09:47:37.933Z,101035.98
2019-06-07T09:49:38.897Z,101032.94
2019-06-07T09:50:40.379Z,101031.41
2019-06-07T09:51:41.003Z,101029.78
2019-06-07T09:52:57.765Z,101028.78
2019-06-07T09:53:41.030Z,101027.14
2019-06-07T09:55:06.071Z,101025.02
2019-06-07T09:55:42.498Z,101023.69
2019-06-07T09:56:43.891Z,101021.72
2019-06-07T09:57:44.789Z,101019.56
2019-06-07T09:58:51.826Z,101018.27
2019-06-07T09:59:44.823Z,101017.01
2019-06-07T10:00:46.236Z,101015.19
2019-06-07T10:01:46.740Z,101013.97
2019-06-07T10:02:47.224Z,101012.75
2019-06-07T10:03:46.835Z,101011.44
2019-06-07T10:04:48.659Z,101009.63
2019-06-07T10:05:49.477Z,101008.25
2019-06-07T10:06:49.979Z,101007.27
2019-06-07T10:08:02.495Z,101005.70
2019-06-07T10:10:12.611Z,101002.79
2019-06-07T10:10:51.239Z,101001.67
2019-06-07T10:11:52.952Z,101000.51
2019-06-07T10:12:52.955Z,100998.91
2019-06-07T10:13:53.502Z,100996.67
2019-06-07T10:14:54.018Z,100994.13
2019-06-07T10:15:54.868Z,100992.41
2019-06-07T10:16:55.364Z,100990.36
2019-06-07T10:17:55.783Z,100988.55
2019-06-07T10:18:56.030Z,100986.91
2019-06-07T10:19:56.657Z,100984.84
2019-06-07T10:20:57.194Z,100983.45
2019-06-07T10:21:59.123Z,100981.22
2019-06-07T10:22:57.508Z,100979.91
2019-06-07T10:23:59.296Z,100977.33
2019-06-07T10:24:59.695Z,100975.27
2019-06-07T10:25:59.662Z,100973.77
2019-06-07T10:27:01.721Z,100971.98
2019-06-07T10:28:01.860Z,100969.56
2019-06-07T10:29:01.909Z,100967.46
2019-06-07T10:30:02.721Z,100965.44
2019-06-07T10:31:04.503Z,100963.16
2019-06-07T10:32:04.493Z,100960.50
2019-06-07T10:33:05.049Z,100958.11
2019-06-07T10:33:13.706Z,100919.44
2019-06-07T10:34:14.737Z,100919.73
2019-06-07T10:35:16.521Z,100919.53
2019-06-07T10:36:14.868Z,100920.41
2019-06-07T10:37:16.380Z,100921.63
2019-06-07T10:38:16.923Z,100922.19
2019-06-07T10:39:17.643Z,100921.80
2019-06-07T10:40:18.275Z,100921.32
2019-06-07T10:41:18.733Z,100920.96
2019-06-07T10:42:19.619Z,100921.40
2019-06-07T10:43:20.148Z,100920.97
2019-06-07T10:44:19.874Z,100921.13
2019-06-07T10:45:21.302Z,100920.83
2019-06-07T10:46:21.938Z,100920.74
2019-06-07T10:47:22.736Z,100919.92
2019-06-07T10:48:25.096Z,100919.21
2019-06-07T10:49:22.836Z,100918.00
2019-06-07T10:50:24.372Z,100918.01
2019-06-07T10:51:24.917Z,100917.77
2019-06-07T10:52:25.351Z,100917.67
2019-06-07T10:53:26.084Z,100917.30
2019-06-07T10:54:30.530Z,100917.55
2019-06-07T10:55:26.475Z,100917.20
2019-06-07T10:56:27.949Z,100916.52
2019-06-07T10:57:28.492Z,100916.30
2019-06-07T10:58:28.961Z,100916.22
2019-06-07T10:59:29.720Z,100915.59
2019-06-07T11:00:30.197Z,100915.03
2019-06-07T11:01:30.751Z,100914.43
2019-06-07T11:02:30.421Z,100914.08
2019-06-07T11:03:31.998Z,100913.52
2019-06-07T11:04:32.517Z,100913.40
2019-06-07T11:05:32.413Z,100913.11
2019-06-07T11:06:34.140Z,100913.13
2019-06-07T11:07:34.849Z,100912.87
2019-06-07T11:08:35.485Z,100912.48
2019-06-07T11:09:35.976Z,100911.80
2019-06-07T11:10:36.469Z,100912.08
2019-06-07T11:11:37.038Z,100911.93
2019-06-07T11:12:37.457Z,100912.27
2019-06-07T11:13:38.009Z,100911.84
2019-06-07T11:14:38.605Z,100911.92
2019-06-07T11:15:39.079Z,100912.11
2019-06-07T11:16:38.677Z,100912.16
2019-06-07T11:17:39.901Z,100912.52
2019-06-07T11:18:40.379Z,100912.63
2019-06-07T11:19:41.012Z,100913.05
2019-06-07T11:20:41.516Z,100914.13
2019-06-07T11:21:42.019Z,100914.83
2019-06-07T11:22:41.512Z,100915.83
2019-06-07T11:22:50.588Z,100927.77
2019-06-07T11:23:52.277Z,100919.30
2019-06-07T11:24:51.682Z,100919.36
2019-06-07T11:25:52.073Z,100919.97
2019-06-07T11:26:53.914Z,100920.77
2019-06-07T11:27:54.500Z,100921.00
2019-06-07T11:28:54.521Z,100921.22
2019-06-07T11:29:55.325Z,100921.57